createdAt,value
2023-01-27T00:01:30.456Z,12.23
2023-01-27T00:03:58.692Z,9.80
2023-01-27T00:06:28.236Z,11.80
2023-01-27T00:08:56.417Z,11.60
2023-01-27T00:11:41.929Z,10.83
2023-01-27T00:14:10.141Z,12.13
2023-01-27T00:16:38.291Z,10.20
2023-01-27T00:19:07.133Z,10.83
2023-01-27T00:21:56.395Z,12.23
2023-01-27T00:24:39.625Z,10.57
2023-01-27T00:27:10.062Z,10.33
2023-01-27T00:29:38.737Z,10.57
2023-01-27T00:32:24.952Z,12.37
2023-01-27T00:34:53.171Z,11.20
2023-01-27T00:37:24.510Z,11.63
2023-01-27T00:39:52.687Z,11.53
2023-01-27T00:42:20.818Z,18.73
2023-01-27T00:45:02.918Z,12.97
2023-01-27T00:47:31.056Z,12.00
2023-01-27T00:49:59.239Z,11.07
2023-01-27T00:52:28.781Z,9.80
2023-01-27T00:54:57.015Z,12.53
2023-01-27T00:57:25.844Z,10.50
2023-01-27T00:59:53.994Z,10.83
2023-01-27T01:02:22.191Z,11.93
2023-01-27T01:04:50.380Z,12.33
2023-01-27T01:07:18.526Z,11.23
2023-01-27T01:09:48.130Z,11.00
2023-01-27T01:12:16.365Z,9.77
2023-01-27T01:14:44.582Z,9.77
2023-01-27T01:17:15.302Z,11.57
2023-01-27T01:19:43.499Z,12.13
2023-01-27T01:22:11.687Z,10.77
2023-01-27T01:24:39.777Z,11.27
2023-01-27T01:27:09.223Z,12.57
2023-01-27T01:29:37.272Z,11.17
2023-01-27T01:32:09.826Z,10.77
2023-01-27T01:34:38.064Z,11.43
2023-01-27T01:37:06.521Z,11.93
2023-01-27T01:39:34.775Z,13.00
2023-01-27T01:42:02.833Z,11.80
2023-01-27T01:44:33.538Z,11.97
2023-01-27T01:47:01.861Z,16.63
2023-01-27T01:49:33.962Z,14.73
2023-01-27T01:52:08.525Z,13.63
2023-01-27T01:54:40.011Z,11.83
2023-01-27T01:57:12.343Z,10.60
2023-01-27T01:59:46.836Z,9.50
2023-01-27T02:02:19.759Z,12.07
2023-01-27T02:04:55.546Z,11.37
2023-01-27T02:07:30.487Z,11.80
2023-01-27T02:10:02.250Z,14.33
2023-01-27T02:12:30.284Z,12.53
2023-01-27T02:15:00.143Z,11.23
2023-01-27T02:17:29.413Z,11.83
2023-01-27T02:20:06.930Z,11.70
2023-01-27T02:22:40.996Z,14.17
2023-01-27T02:25:27.329Z,11.50
2023-01-27T02:27:56.867Z,12.87
2023-01-27T02:30:25.797Z,16.30
2023-01-27T02:32:57.323Z,10.57
2023-01-27T02:35:31.606Z,11.03
2023-01-27T02:38:00.626Z,14.37
2023-01-27T02:40:30.885Z,11.20
2023-01-27T02:43:01.534Z,14.70
2023-01-27T02:45:29.956Z,13.30
2023-01-27T02:47:58.194Z,14.13
2023-01-27T02:50:26.369Z,12.00
2023-01-27T02:52:54.568Z,15.33
2023-01-27T02:55:22.722Z,15.30
2023-01-27T02:57:50.908Z,11.73
2023-01-27T03:00:20.916Z,13.97
2023-01-27T03:02:49.200Z,12.63
2023-01-27T03:05:17.508Z,15.17
2023-01-27T03:07:45.668Z,13.33
2023-01-27T03:10:13.819Z,18.00
2023-01-27T03:12:42.019Z,14.13
2023-01-27T03:15:28.842Z,14.60
2023-01-27T03:18:16.200Z,12.57
2023-01-27T03:20:46.835Z,11.53
2023-01-27T03:23:16.569Z,12.83
2023-01-27T03:25:47.647Z,15.50
2023-01-27T03:28:16.513Z,12.07
2023-01-27T03:30:44.721Z,12.30
2023-01-27T03:33:14.257Z,14.33
2023-01-27T03:35:48.579Z,14.20
2023-01-27T03:38:34.919Z,13.67
2023-01-27T03:41:22.445Z,11.27
2023-01-27T03:44:07.902Z,16.80
2023-01-27T03:46:36.157Z,12.57
2023-01-27T03:49:05.743Z,14.30
2023-01-27T03:51:33.910Z,13.90
2023-01-27T03:54:02.091Z,14.83
2023-01-27T03:56:30.273Z,15.97
2023-01-27T03:58:58.561Z,15.57
2023-01-27T04:01:26.807Z,16.73
2023-01-27T04:04:12.825Z,14.70
2023-01-27T04:06:53.291Z,15.00
2023-01-27T04:09:24.476Z,14.80
2023-01-27T04:12:01.973Z,14.00
2023-01-27T04:14:35.640Z,13.03
2023-01-27T04:17:06.629Z,12.60
2023-01-27T04:19:35.568Z,12.97
2023-01-27T04:22:07.052Z,15.20
2023-01-27T04:24:35.485Z,17.30
2023-01-27T04:27:06.412Z,17.57
2023-01-27T04:29:37.372Z,14.50
2023-01-27T04:32:07.075Z,15.87
2023-01-27T04:34:35.575Z,16.97
2023-01-27T04:37:06.699Z,15.73
2023-01-27T04:39:38.494Z,13.63
2023-01-27T04:42:06.912Z,16.53
2023-01-27T04:44:35.077Z,12.90
2023-01-27T04:47:03.296Z,16.90
2023-01-27T04:49:31.482Z,17.43
2023-01-27T04:51:59.760Z,19.17
2023-01-27T04:54:29.340Z,17.73
2023-01-27T04:57:00.338Z,20.40
2023-01-27T04:59:29.108Z,18.77
2023-01-27T05:01:57.623Z,20.27
2023-01-27T05:04:27.104Z,21.50
2023-01-27T05:06:55.593Z,18.63
2023-01-27T05:09:24.107Z,15.80
2023-01-27T05:11:53.631Z,17.93
2023-01-27T05:14:23.515Z,15.00
2023-01-27T05:16:51.821Z,16.30
2023-01-27T05:19:20.064Z,18.73
2023-01-27T05:21:48.273Z,13.80
2023-01-27T05:24:16.567Z,16.97
2023-01-27T05:26:44.813Z,18.43
2023-01-27T05:29:14.535Z,18.23
2023-01-27T05:31:42.817Z,15.60
2023-01-27T05:34:11.482Z,13.03
2023-01-27T05:36:39.744Z,13.60
2023-01-27T05:39:09.092Z,15.10
2023-01-27T05:41:37.629Z,13.47
2023-01-27T05:44:06.544Z,12.83
2023-01-27T05:46:39.980Z,11.23
2023-01-27T05:49:08.236Z,14.03
2023-01-27T05:51:39.688Z,14.50
2023-01-27T05:54:09.187Z,13.80
2023-01-27T05:56:37.532Z,16.40
2023-01-27T05:59:06.058Z,18.40
2023-01-27T06:01:37.600Z,19.23
2023-01-27T06:04:06.661Z,18.47
2023-01-27T06:06:35.667Z,17.87
2023-01-27T06:09:04.144Z,20.40
2023-01-27T06:11:32.406Z,16.93
2023-01-27T06:14:00.600Z,18.40
2023-01-27T06:16:28.854Z,15.33
2023-01-27T06:18:58.705Z,15.93
2023-01-27T06:21:26.992Z,18.87
2023-01-27T06:23:55.854Z,20.10
2023-01-27T06:26:24.084Z,19.83
2023-01-27T06:29:07.138Z,19.37
2023-01-27T06:31:35.452Z,20.10
2023-01-27T06:34:04.959Z,17.97
2023-01-27T06:36:33.108Z,18.00
2023-01-27T06:39:01.297Z,19.23
2023-01-27T06:41:29.509Z,17.97
2023-01-27T06:43:57.647Z,20.40
2023-01-27T06:46:25.833Z,20.30
2023-01-27T06:48:54.027Z,129.53
2023-01-27T06:51:23.628Z,60.03
2023-01-27T06:53:51.795Z,35.57
2023-01-27T06:56:19.999Z,20.27
2023-01-27T06:58:48.223Z,19.00
2023-01-27T07:01:16.429Z,20.60
2023-01-27T07:03:45.219Z,17.17
2023-01-27T07:06:14.940Z,19.80
2023-01-27T07:08:45.880Z,17.70
2023-01-27T07:11:14.216Z,17.93
2023-01-27T07:13:42.396Z,18.40
2023-01-27T07:16:10.672Z,20.53
2023-01-27T07:18:38.857Z,15.93
2023-01-27T07:21:07.694Z,16.63
2023-01-27T07:23:35.861Z,18.60
2023-01-27T07:26:19.235Z,14.23
2023-01-27T07:28:52.752Z,14.57
2023-01-27T07:31:21.021Z,13.27
2023-01-27T07:33:50.520Z,20.47
2023-01-27T07:36:18.682Z,17.60
2023-01-27T07:38:50.311Z,17.93
2023-01-27T07:41:19.961Z,21.57
2023-01-27T07:43:49.768Z,21.20
2023-01-27T07:46:19.689Z,16.93
2023-01-27T07:48:47.873Z,15.87
2023-01-27T07:51:16.814Z,17.17
2023-01-27T07:53:44.923Z,18.60
2023-01-27T07:56:13.352Z,13.93
2023-01-27T07:58:43.860Z,15.00
2023-01-27T08:01:14.164Z,17.93
2023-01-27T08:03:42.399Z,17.53
2023-01-27T08:06:13.467Z,15.33
2023-01-27T08:08:41.733Z,19.17
2023-01-27T08:11:13.758Z,16.30
2023-01-27T08:13:43.875Z,18.07
2023-01-27T08:16:15.672Z,15.90
2023-01-27T08:18:44.044Z,18.47
2023-01-27T08:21:13.739Z,21.30
2023-01-27T08:23:41.965Z,26.00
2023-01-27T08:26:10.204Z,38.10
2023-01-27T08:28:40.238Z,27.80
2023-01-27T08:31:13.274Z,22.87
2023-01-27T08:33:42.850Z,23.80
2023-01-27T08:36:14.158Z,22.43
2023-01-27T08:38:43.417Z,24.83
2023-01-27T08:41:14.454Z,25.67
2023-01-27T08:43:43.235Z,20.10
2023-01-27T08:46:13.614Z,22.60
2023-01-27T08:48:42.404Z,22.27
2023-01-27T08:51:13.837Z,19.40
2023-01-27T08:53:42.454Z,19.60
2023-01-27T08:56:14.671Z,22.97
2023-01-27T08:58:43.216Z,22.27
2023-01-27T09:01:12.951Z,24.93
2023-01-27T09:03:41.245Z,20.00
2023-01-27T09:06:11.692Z,18.07
2023-01-27T09:08:40.848Z,15.33
2023-01-27T09:11:15.193Z,20.77
2023-01-27T09:13:44.130Z,17.80
2023-01-27T09:16:13.843Z,15.70
2023-01-27T09:18:42.538Z,17.83
2023-01-27T09:21:11.937Z,16.07
2023-01-27T09:23:40.165Z,16.80
2023-01-27T09:26:08.425Z,17.97
2023-01-27T09:28:36.644Z,15.80
2023-01-27T09:31:05.088Z,16.87
2023-01-27T09:33:34.627Z,14.23
2023-01-27T09:36:06.400Z,13.07
2023-01-27T09:38:39.807Z,15.07
2023-01-27T09:41:30.465Z,14.93
2023-01-27T09:44:23.933Z,14.83
2023-01-27T09:47:19.018Z,17.90
2023-01-27T09:50:30.161Z,16.97
2023-01-27T09:53:24.581Z,13.97
2023-01-27T09:55:59.432Z,19.67
2023-01-27T09:58:40.107Z,14.23
2023-01-27T10:01:20.505Z,14.80
2023-01-27T10:04:19.046Z,15.77
2023-01-27T10:07:09.425Z,16.77
2023-01-27T10:10:07.492Z,21.57
2023-01-27T10:12:57.241Z,15.20
2023-01-27T10:15:39.646Z,12.40
2023-01-27T10:18:25.099Z,17.20
2023-01-27T10:21:01.283Z,13.73
2023-01-27T10:23:43.466Z,15.83
2023-01-27T10:26:24.817Z,12.33
2023-01-27T10:28:59.393Z,12.63
2023-01-27T10:31:33.387Z,14.87
2023-01-27T10:34:13.659Z,17.50
2023-01-27T10:36:51.266Z,20.83
2023-01-27T10:39:33.180Z,16.10
2023-01-27T10:42:13.291Z,11.90
2023-01-27T10:45:02.648Z,11.53
2023-01-27T10:47:49.186Z,11.87
2023-01-27T10:50:21.128Z,11.60
2023-01-27T10:52:56.469Z,9.70
2023-01-27T10:55:32.095Z,9.93
2023-01-27T10:58:06.959Z,13.70
2023-01-27T11:01:17.714Z,8.30
2023-01-27T11:03:49.859Z,6.20
2023-01-27T11:06:22.972Z,8.03
2023-01-27T11:09:00.339Z,6.37
2023-01-27T11:11:46.666Z,5.47
2023-01-27T11:14:25.245Z,9.13
2023-01-27T11:16:57.292Z,6.77
2023-01-27T11:19:36.340Z,7.40
2023-01-27T11:22:09.063Z,5.50
2023-01-27T11:24:46.247Z,5.67
2023-01-27T11:27:32.423Z,6.77
2023-01-27T11:30:09.203Z,6.30
2023-01-27T11:32:49.707Z,7.17
2023-01-27T11:35:18.228Z,7.47
2023-01-27T11:37:50.531Z,5.20
2023-01-27T11:40:24.288Z,6.37
2023-01-27T11:42:54.884Z,3.00
2023-01-27T11:45:23.497Z,4.50
2023-01-27T11:47:56.355Z,4.33
2023-01-27T11:50:27.310Z,2.23
2023-01-27T11:53:05.418Z,3.03
2023-01-27T11:55:40.648Z,3.40
2023-01-27T11:58:18.549Z,3.80
2023-01-27T12:00:54.565Z,4.27
2023-01-27T12:03:29.456Z,1.47
2023-01-27T12:06:02.426Z,1.70
2023-01-27T12:08:45.037Z,2.03
2023-01-27T12:11:23.618Z,3.13
2023-01-27T12:13:56.889Z,1.93
2023-01-27T12:16:42.182Z,3.00
2023-01-27T12:19:23.670Z,1.50
2023-01-27T12:21:55.493Z,2.70
2023-01-27T12:24:31.910Z,3.10
2023-01-27T12:27:02.676Z,8.43
2023-01-27T12:29:41.488Z,5.53
2023-01-27T12:32:18.590Z,4.87
2023-01-27T12:34:51.137Z,3.73
2023-01-27T12:37:25.903Z,3.57
2023-01-27T12:39:58.796Z,2.93
2023-01-27T12:42:37.140Z,3.47
2023-01-27T12:45:25.677Z,2.47
2023-01-27T12:48:00.179Z,2.63
2023-01-27T12:50:31.159Z,2.73
2023-01-27T12:53:08.138Z,4.07
2023-01-27T12:55:40.699Z,2.13
2023-01-27T12:58:36.619Z,3.27
2023-01-27T13:01:18.918Z,2.77
2023-01-27T13:03:52.145Z,4.40
2023-01-27T13:06:30.911Z,1.97
2023-01-27T13:09:01.378Z,1.73
2023-01-27T13:11:41.516Z,7.27
2023-01-27T13:14:17.380Z,3.57
2023-01-27T13:16:54.297Z,1.63
2023-01-27T13:19:35.954Z,2.83
2023-01-27T13:22:05.427Z,2.77
2023-01-27T13:24:40.683Z,4.23
2023-01-27T13:27:17.353Z,2.97
2023-01-27T13:29:56.137Z,2.57
2023-01-27T13:32:29.604Z,1.40
2023-01-27T13:35:16.472Z,2.87
2023-01-27T13:37:50.276Z,2.57
2023-01-27T13:40:23.731Z,4.07
2023-01-27T13:42:55.917Z,4.27
2023-01-27T13:45:28.202Z,4.80
2023-01-27T13:48:02.489Z,2.73
2023-01-27T13:50:36.354Z,3.07
2023-01-27T13:53:05.905Z,2.90
2023-01-27T13:55:49.067Z,2.17
2023-01-27T13:58:27.699Z,1.00
2023-01-27T14:01:05.363Z,3.10
2023-01-27T14:04:06.963Z,4.27
2023-01-27T14:06:50.184Z,2.33
2023-01-27T14:09:40.699Z,2.93
2023-01-27T14:12:27.290Z,5.50
2023-01-27T14:15:07.810Z,2.67
2023-01-27T14:17:45.824Z,2.97
2023-01-27T14:20:38.498Z,10.07
2023-01-27T14:23:32.646Z,5.47
2023-01-27T14:26:17.261Z,1.60
2023-01-27T14:29:04.587Z,3.77
2023-01-27T14:31:47.194Z,1.30
2023-01-27T14:34:44.321Z,4.97
2023-01-27T14:37:23.397Z,1.07
2023-01-27T14:40:13.049Z,2.33
2023-01-27T14:42:51.908Z,1.77
2023-01-27T14:45:25.003Z,0.97
2023-01-27T14:48:05.241Z,2.00
2023-01-27T14:50:40.897Z,2.80
2023-01-27T14:53:43.780Z,2.13
2023-01-27T14:56:19.882Z,1.50
2023-01-27T14:58:56.996Z,0.90
2023-01-27T15:01:42.851Z,3.60
2023-01-27T15:04:37.003Z,1.53
2023-01-27T15:07:16.325Z,3.07
2023-01-27T15:10:17.704Z,1.17
2023-01-27T15:13:32.159Z,3.07
2023-01-27T15:16:19.697Z,3.17
2023-01-27T15:19:25.605Z,6.53
2023-01-27T15:22:40.475Z,7.53
2023-01-27T15:25:29.745Z,7.70
2023-01-27T15:27:59.370Z,2.20
2023-01-27T15:30:31.178Z,0.90
2023-01-27T15:32:59.380Z,10.33
2023-01-27T15:35:38.789Z,1.93
2023-01-27T15:38:35.827Z,1.30
2023-01-27T15:41:10.208Z,4.60
2023-01-27T15:44:06.731Z,1.67
2023-01-27T15:46:37.619Z,2.20
2023-01-27T15:49:12.354Z,2.87
2023-01-27T15:51:40.620Z,3.83
2023-01-27T15:54:18.675Z,3.37
2023-01-27T15:56:52.224Z,1.57
2023-01-27T15:59:25.224Z,2.23
2023-01-27T16:02:06.495Z,2.80
2023-01-27T16:04:35.696Z,3.80
